createdAt,value
2022-10-17T00:01:35.968Z,101907.06
2022-10-17T00:04:03.102Z,101914.28
2022-10-17T00:06:30.054Z,101915.19
2022-10-17T00:08:56.925Z,101908.13
2022-10-17T00:11:24.062Z,101911.81
2022-10-17T00:13:54.602Z,101891.59
2022-10-17T00:16:29.351Z,101894.25
2022-10-17T00:18:56.648Z,101907.28
2022-10-17T00:21:24.498Z,101902.09
2022-10-17T00:23:51.717Z,101900.34
2022-10-17T00:26:19.191Z,101906.62
2022-10-17T00:28:50.991Z,101904.97
2022-10-17T00:31:19.400Z,101909.72
2022-10-17T00:33:46.845Z,101911.31
2022-10-17T00:36:25.343Z,101909.72
2022-10-17T00:38:57.769Z,101911.59
2022-10-17T00:41:30.512Z,101904.37
2022-10-17T00:44:02.859Z,101907.00
2022-10-17T00:46:32.868Z,101915.19
2022-10-17T00:49:05.738Z,101910.91
2022-10-17T00:51:48.553Z,101906.38
2022-10-17T00:54:17.608Z,101906.44
2022-10-17T00:56:45.016Z,101904.84
2022-10-17T00:59:12.782Z,101906.84
2022-10-17T01:01:46.526Z,101901.72
2022-10-17T01:04:13.463Z,101906.50
2022-10-17T01:06:40.203Z,101902.22
2022-10-17T01:09:07.049Z,101901.41
2022-10-17T01:11:36.665Z,101915.69
2022-10-17T01:14:18.437Z,101909.47
2022-10-17T01:16:52.265Z,101910.38
2022-10-17T01:19:28.230Z,101905.91
2022-10-17T01:21:56.567Z,101898.91
2022-10-17T01:24:48.979Z,101906.91
2022-10-17T01:27:53.340Z,101905.31
2022-10-17T01:31:10.783Z,101911.72
2022-10-17T01:33:43.354Z,101911.00
2022-10-17T01:36:43.863Z,101917.34
2022-10-17T01:39:38.400Z,101912.88
2022-10-17T01:42:58.213Z,101928.34
2022-10-17T01:45:38.708Z,101922.22
2022-10-17T01:48:09.361Z,101898.25
2022-10-17T01:50:39.244Z,101921.22
2022-10-17T01:53:14.595Z,101912.31
2022-10-17T01:55:43.230Z,101919.53
2022-10-17T01:58:22.206Z,101907.31
2022-10-17T02:00:49.870Z,101914.19
2022-10-17T02:03:20.222Z,101926.59
2022-10-17T02:05:47.151Z,101917.66
2022-10-17T02:08:14.560Z,101926.56
2022-10-17T02:11:02.665Z,101915.44
2022-10-17T02:13:58.664Z,101929.72
2022-10-17T02:16:43.330Z,101940.03
2022-10-17T02:19:25.230Z,101940.53
2022-10-17T02:22:01.027Z,101942.22
2022-10-17T02:24:57.424Z,101937.88
2022-10-17T02:27:28.552Z,101945.09
2022-10-17T02:30:34.348Z,101948.78
2022-10-17T02:33:02.543Z,101946.06
2022-10-17T02:35:31.870Z,101941.56
2022-10-17T02:37:59.826Z,101949.50
2022-10-17T02:40:27.279Z,101940.53
2022-10-17T02:42:54.988Z,101936.22
2022-10-17T02:45:23.678Z,101944.12
2022-10-17T02:48:20.060Z,101937.94
2022-10-17T02:51:05.563Z,101941.47
2022-10-17T02:54:13.972Z,101936.16
2022-10-17T02:56:45.206Z,101947.66
2022-10-17T02:59:15.097Z,101942.34
2022-10-17T03:01:42.221Z,101939.72
2022-10-17T03:04:12.010Z,101940.72
2022-10-17T03:06:40.111Z,101942.50
2022-10-17T03:09:07.968Z,101941.66
2022-10-17T03:11:34.825Z,101953.56
2022-10-17T03:14:01.708Z,101962.72
2022-10-17T03:16:28.517Z,101960.88
2022-10-17T03:18:55.335Z,101963.72
2022-10-17T03:21:22.218Z,101967.19
2022-10-17T03:23:49.076Z,101970.88
2022-10-17T03:26:15.887Z,101976.16
2022-10-17T03:28:42.757Z,101973.47
2022-10-17T03:31:11.231Z,101977.88
2022-10-17T03:33:38.052Z,101980.53
2022-10-17T03:36:14.282Z,101984.22
2022-10-17T03:38:41.558Z,101983.44
2022-10-17T03:41:08.568Z,101986.91
2022-10-17T03:43:35.911Z,101988.72
2022-10-17T03:46:02.809Z,101997.50
2022-10-17T03:48:31.110Z,101990.47
2022-10-17T03:51:02.203Z,101992.22
2022-10-17T03:53:29.119Z,101991.47
2022-10-17T03:55:56.540Z,101999.41
2022-10-17T03:58:23.569Z,101994.97
2022-10-17T04:00:50.472Z,102008.34
2022-10-17T04:03:17.517Z,102001.28
2022-10-17T04:05:44.393Z,102009.37
2022-10-17T04:08:11.159Z,101997.00
2022-10-17T04:10:37.978Z,102004.06
2022-10-17T04:13:06.466Z,102003.16
2022-10-17T04:15:33.322Z,102002.22
2022-10-17T04:18:00.154Z,102007.62
2022-10-17T04:20:27.180Z,102008.53
2022-10-17T04:22:53.945Z,102006.00
2022-10-17T04:25:20.759Z,102000.66
2022-10-17T04:27:49.064Z,102018.50
2022-10-17T04:30:16.217Z,102019.53
2022-10-17T04:32:43.069Z,102022.41
2022-10-17T04:35:09.971Z,102016.37
2022-10-17T04:37:36.805Z,102026.34
2022-10-17T04:40:03.854Z,102021.91
2022-10-17T04:42:30.867Z,102026.41
2022-10-17T04:44:57.872Z,102031.91
2022-10-17T04:47:24.689Z,102031.91
2022-10-17T04:49:51.515Z,102031.19
2022-10-17T04:52:18.354Z,102032.88
2022-10-17T04:54:45.141Z,102040.06
2022-10-17T04:57:12.341Z,102035.75
2022-10-17T04:59:39.179Z,102035.75
2022-10-17T05:02:05.986Z,102039.25
2022-10-17T05:04:32.824Z,102044.53
2022-10-17T05:06:59.645Z,102044.53
2022-10-17T05:09:26.551Z,102049.94
2022-10-17T05:11:53.440Z,102053.53
2022-10-17T05:14:20.233Z,102057.00
2022-10-17T05:16:47.111Z,102055.28
2022-10-17T05:19:14.005Z,102057.00
2022-10-17T05:21:40.850Z,102049.81
2022-10-17T05:24:09.109Z,102049.00
2022-10-17T05:26:35.978Z,102053.31
2022-10-17T05:29:03.438Z,102063.91
2022-10-17T05:31:30.519Z,102069.09
2022-10-17T05:34:02.241Z,102070.75
2022-10-17T05:36:29.333Z,102076.72
2022-10-17T05:38:56.138Z,102074.56
2022-10-17T05:41:23.024Z,102075.16
2022-10-17T05:43:50.410Z,102080.44
2022-10-17T05:46:17.521Z,102084.13
2022-10-17T05:48:44.405Z,102089.00
2022-10-17T05:51:12.026Z,102095.94
2022-10-17T05:53:40.771Z,102096.12
2022-10-17T05:56:10.388Z,102089.31
2022-10-17T05:59:00.700Z,102114.91
2022-10-17T06:01:28.004Z,102117.72
2022-10-17T06:03:54.926Z,102122.97
2022-10-17T06:06:22.105Z,102124.78
2022-10-17T06:08:48.932Z,102137.59
2022-10-17T06:11:15.757Z,102127.88
2022-10-17T06:13:42.625Z,102125.09
2022-10-17T06:16:09.732Z,102132.34
2022-10-17T06:18:36.619Z,102127.84
2022-10-17T06:21:09.279Z,102134.44
2022-10-17T06:23:36.185Z,102133.16
2022-10-17T06:26:04.729Z,102112.53
2022-10-17T06:28:31.618Z,102141.47
2022-10-17T06:30:58.573Z,102128.13
2022-10-17T06:33:25.544Z,102148.97
2022-10-17T06:35:53.664Z,102139.66
2022-10-17T06:38:21.078Z,102146.81
2022-10-17T06:40:48.052Z,102143.97
2022-10-17T06:43:14.969Z,102152.31
2022-10-17T06:45:42.268Z,102151.50
2022-10-17T06:48:09.248Z,102154.53
2022-10-17T06:50:36.056Z,102163.31
2022-10-17T06:53:03.182Z,102165.63
2022-10-17T06:55:31.518Z,102167.88
2022-10-17T06:57:58.695Z,102162.34
2022-10-17T07:00:26.847Z,102164.44
2022-10-17T07:02:53.679Z,102162.19
2022-10-17T07:05:20.575Z,102162.63
2022-10-17T07:07:49.668Z,102164.84
2022-10-17T07:10:18.743Z,102164.41
2022-10-17T07:12:45.926Z,102174.69
2022-10-17T07:15:13.056Z,102168.94
2022-10-17T07:17:40.120Z,102170.34
2022-10-17T07:20:08.146Z,102172.72
2022-10-17T07:22:34.957Z,102172.06
2022-10-17T07:25:01.869Z,102175.09
2022-10-17T07:27:28.993Z,102157.91
2022-10-17T07:29:56.646Z,102155.34
2022-10-17T07:32:23.458Z,102164.19
2022-10-17T07:34:50.339Z,102159.81
2022-10-17T07:37:17.174Z,102164.06
2022-10-17T07:39:44.015Z,102152.44
2022-10-17T07:42:10.843Z,102157.47
2022-10-17T07:44:37.804Z,102159.59
2022-10-17T07:47:04.721Z,102160.38
2022-10-17T07:49:31.483Z,102150.28
2022-10-17T07:51:58.460Z,102148.44
2022-10-17T07:54:25.502Z,102139.69
2022-10-17T07:56:52.451Z,102128.09
2022-10-17T07:59:19.893Z,102127.12
2022-10-17T08:01:46.913Z,102133.91
2022-10-17T08:04:13.729Z,102135.28
2022-10-17T08:06:40.526Z,102128.44
2022-10-17T08:09:07.435Z,102136.53
2022-10-17T08:11:35.961Z,102135.81
2022-10-17T08:14:02.813Z,102128.78
2022-10-17T08:16:29.715Z,102135.31
2022-10-17T08:18:56.509Z,102129.31
2022-10-17T08:21:23.340Z,102129.84
2022-10-17T08:23:50.202Z,102121.81
2022-10-17T08:26:17.463Z,102118.81
2022-10-17T08:28:44.368Z,102105.16
2022-10-17T08:31:16.113Z,102108.50
2022-10-17T08:33:42.922Z,102102.84
2022-10-17T08:36:10.578Z,102102.62
2022-10-17T08:38:43.172Z,102069.00
2022-10-17T08:41:45.574Z,102100.00
2022-10-17T08:44:29.194Z,102061.00
2022-10-17T08:47:00.100Z,102057.66
2022-10-17T08:49:52.617Z,102039.53
2022-10-17T08:52:40.405Z,102083.00
2022-10-17T08:57:51.076Z,102074.00
2022-10-17T09:00:20.610Z,102091.69
2022-10-17T09:02:50.504Z,102061.69
2022-10-17T09:05:36.108Z,102068.25
2022-10-17T09:08:15.361Z,102053.00
2022-10-17T09:10:51.266Z,102055.19
2022-10-17T09:13:55.596Z,102039.13
2022-10-17T09:16:54.720Z,102019.87
2022-10-17T09:19:54.493Z,102039.13
2022-10-17T09:22:25.177Z,102028.88
2022-10-17T09:25:04.053Z,102025.22
2022-10-17T09:27:39.224Z,102027.22
2022-10-17T09:30:40.069Z,102037.81
2022-10-17T09:33:23.174Z,102029.06
2022-10-17T09:36:00.612Z,102033.03
2022-10-17T09:38:37.073Z,102031.50
2022-10-17T09:41:15.827Z,102036.91
2022-10-17T09:43:56.185Z,102021.72
2022-10-17T09:46:31.942Z,102006.31
2022-10-17T09:49:03.559Z,102023.19
2022-10-17T09:51:31.274Z,102003.72
2022-10-17T09:54:03.604Z,102014.75
2022-10-17T09:56:30.407Z,102007.22
2022-10-17T09:58:58.565Z,102015.81
2022-10-17T10:01:30.933Z,102060.19
2022-10-17T10:04:10.570Z,102036.09
2022-10-17T10:06:38.715Z,102038.09
2022-10-17T10:09:09.069Z,102038.97
2022-10-17T10:11:48.088Z,102032.19
2022-10-17T10:14:36.894Z,102041.75
2022-10-17T10:17:06.609Z,102043.72
2022-10-17T10:19:38.121Z,102028.31
2022-10-17T10:22:14.879Z,102042.78
2022-10-17T10:24:41.818Z,102015.12
2022-10-17T10:27:14.426Z,102017.75
2022-10-17T10:29:50.105Z,102002.69
2022-10-17T10:32:20.509Z,102000.25
2022-10-17T10:34:52.944Z,102000.41
2022-10-17T10:37:34.284Z,101983.13
2022-10-17T10:40:20.906Z,101995.78
2022-10-17T10:42:50.485Z,101990.56
2022-10-17T10:48:26.160Z,101954.75
2022-10-17T10:51:25.062Z,101949.31
2022-10-17T10:53:59.943Z,101929.59
2022-10-17T10:56:41.945Z,101950.97
2022-10-17T10:59:09.000Z,101952.91
2022-10-17T11:02:02.238Z,101948.69
2022-10-17T11:04:55.883Z,101931.87
2022-10-17T11:07:34.898Z,101929.13
2022-10-17T11:10:18.670Z,101940.53
2022-10-17T11:12:50.804Z,101936.69
2022-10-17T11:15:26.854Z,101955.00
2022-10-17T11:18:33.366Z,101912.94
2022-10-17T11:21:05.571Z,101933.72
2022-10-17T11:23:49.164Z,101915.69
2022-10-17T11:26:25.981Z,101919.94
2022-10-17T11:28:57.682Z,101927.84
2022-10-17T11:31:27.796Z,101924.59
2022-10-17T11:34:01.557Z,101909.38
2022-10-17T11:36:31.678Z,101918.66
2022-10-17T11:39:09.070Z,101921.06
2022-10-17T11:41:43.101Z,101916.25
2022-10-17T11:44:23.354Z,101913.78
2022-10-17T11:47:06.722Z,101905.50
2022-10-17T11:49:49.938Z,101886.97
2022-10-17T11:52:56.494Z,101878.41
2022-10-17T11:55:28.492Z,101900.53
2022-10-17T11:57:55.228Z,101905.50
2022-10-17T12:00:29.401Z,101908.00
2022-10-17T12:02:59.009Z,101898.91
2022-10-17T12:05:31.496Z,101902.38
2022-10-17T12:08:12.414Z,101894.34
2022-10-17T12:10:59.419Z,101872.28
2022-10-17T12:13:29.305Z,101868.69
2022-10-17T12:15:56.839Z,101876.44
2022-10-17T12:18:29.679Z,101862.34
2022-10-17T12:20:57.954Z,101891.28
2022-10-17T12:23:29.651Z,101875.34
2022-10-17T12:26:04.465Z,101869.12
2022-10-17T12:28:34.528Z,101877.22
2022-10-17T12:31:12.215Z,101879.41
2022-10-17T12:33:49.145Z,101871.06
2022-10-17T12:36:21.040Z,101864.28
2022-10-17T12:39:01.136Z,101869.12
2022-10-17T12:41:44.754Z,101873.72
2022-10-17T12:44:14.554Z,101866.09
2022-10-17T12:46:47.103Z,101864.06
2022-10-17T12:49:43.148Z,101864.56
2022-10-17T12:55:24.871Z,101879.50
2022-10-17T12:57:56.879Z,101864.69
2022-10-17T13:00:49.666Z,101873.34
2022-10-17T13:03:31.028Z,101870.03
2022-10-17T13:06:01.370Z,101880.25
2022-10-17T13:08:39.565Z,101866.84
2022-10-17T13:11:06.867Z,101863.06
2022-10-17T13:13:41.612Z,101872.59
2022-10-17T13:16:08.637Z,101866.41
2022-10-17T13:18:35.628Z,101879.19
2022-10-17T13:21:14.052Z,101861.34
2022-10-17T13:23:40.926Z,101867.31
2022-10-17T13:26:22.489Z,101868.34
2022-10-17T13:29:06.480Z,101868.00
2022-10-17T13:31:42.164Z,101872.69
2022-10-17T13:34:23.644Z,101873.06
2022-10-17T13:37:07.086Z,101871.47
2022-10-17T13:39:54.518Z,101884.13
2022-10-17T13:42:30.770Z,101877.28
2022-10-17T13:44:58.571Z,101869.53
2022-10-17T13:47:30.876Z,101874.69
2022-10-17T13:49:59.460Z,101874.97
2022-10-17T13:52:29.301Z,101881.72
2022-10-17T13:55:07.329Z,101876.06
2022-10-17T13:57:34.438Z,101881.25
2022-10-17T14:00:32.448Z,101877.06
2022-10-17T14:02:59.448Z,101889.78
2022-10-17T14:05:26.607Z,101889.53
2022-10-17T14:08:16.787Z,101887.19
2022-10-17T14:10:44.772Z,101880.34
2022-10-17T14:13:23.248Z,101883.22
2022-10-17T14:15:50.736Z,101883.00
2022-10-17T14:18:36.139Z,101867.06
2022-10-17T14:23:53.360Z,101879.81
2022-10-17T14:26:24.014Z,101879.75
2022-10-17T14:29:04.598Z,101878.28
2022-10-17T14:31:34.060Z,101879.69
2022-10-17T14:34:02.197Z,101895.44
2022-10-17T14:36:38.040Z,101896.34
2022-10-17T14:39:10.590Z,101895.41
2022-10-17T14:41:44.270Z,101903.34
2022-10-17T14:44:37.393Z,101899.88
2022-10-17T14:47:30.816Z,101895.81
2022-10-17T14:50:19.867Z,101908.97
2022-10-17T14:53:06.058Z,101913.03
2022-10-17T14:55:35.396Z,101916.75
2022-10-17T14:58:14.963Z,101924.78
2022-10-17T15:00:42.026Z,101924.41
2022-10-17T15:03:08.859Z,101941.50
2022-10-17T15:05:35.949Z,101942.34
2022-10-17T15:08:02.848Z,101950.50
2022-10-17T15:10:35.565Z,101958.84
2022-10-17T15:13:27.302Z,101976.09
2022-10-17T15:15:52.135Z,101984.31
2022-10-17T15:18:19.550Z,101990.94
2022-10-17T15:20:46.450Z,101996.66
2022-10-17T15:23:13.196Z,101984.75
2022-10-17T15:25:40.018Z,101998.91
2022-10-17T15:28:06.922Z,102005.44
2022-10-17T15:30:36.551Z,102015.41
2022-10-17T15:33:03.878Z,102018.28
2022-10-17T15:35:31.087Z,102022.19
2022-10-17T15:37:58.183Z,102026.50
2022-10-17T15:40:29.226Z,102025.94
2022-10-17T15:42:57.071Z,102031.38
2022-10-17T15:45:24.526Z,102033.09
2022-10-17T15:47:57.671Z,102049.53
2022-10-17T15:50:24.789Z,102059.19
2022-10-17T15:52:52.232Z,102071.53
2022-10-17T15:55:19.797Z,102071.34
2022-10-17T15:57:47.592Z,102065.62
2022-10-17T16:00:20.105Z,102075.84
2022-10-17T16:02:47.633Z,102078.28
2022-10-17T16:05:18.519Z,102074.41
2022-10-17T16:07:46.741Z,102073.34
2022-10-17T16:10:14.390Z,102075.06
2022-10-17T16:12:41.471Z,102075.88
2022-10-17T16:15:14.301Z,102074.22
2022-10-17T16:17:41.786Z,102086.16
2022-10-17T16:20:12.339Z,102083.16
2022-10-17T16:22:42.081Z,102088.94
2022-10-17T16:25:19.810Z,102081.75
2022-10-17T16:27:47.829Z,102101.59
2022-10-17T16:30:15.763Z,102092.50
2022-10-17T16:32:42.848Z,102094.16
2022-10-17T16:35:13.877Z,102095.53
2022-10-17T16:37:40.685Z,102100.16
2022-10-17T16:40:07.858Z,102087.94
2022-10-17T16:42:35.375Z,102099.09
2022-10-17T16:45:02.140Z,102103.97
2022-10-17T16:47:29.691Z,102100.81
2022-10-17T16:49:56.555Z,102100.34
2022-10-17T16:52:23.756Z,102107.28
2022-10-17T16:54:50.862Z,102103.31
2022-10-17T16:57:17.690Z,102100.13
2022-10-17T16:59:44.521Z,102108.37
2022-10-17T17:02:12.054Z,102111.50
2022-10-17T17:04:39.179Z,102110.00
2022-10-17T17:07:06.139Z,102114.91
2022-10-17T17:09:32.952Z,102116.97
2022-10-17T17:11:59.716Z,102112.91
2022-10-17T17:14:26.543Z,102115.88
2022-10-17T17:16:53.456Z,102109.00
2022-10-17T17:19:20.527Z,102122.91
2022-10-17T17:21:51.034Z,102118.69
2022-10-17T17:24:21.025Z,102127.19
2022-10-17T17:26:53.118Z,102126.59
2022-10-17T17:29:21.784Z,102127.75
2022-10-17T17:31:48.923Z,102117.31
2022-10-17T17:34:18.080Z,102121.19
2022-10-17T17:36:45.430Z,102122.44
2022-10-17T17:39:13.680Z,102114.56
2022-10-17T17:41:41.510Z,102115.84
2022-10-17T17:44:12.452Z,102126.16
2022-10-17T17:46:43.620Z,102132.03
2022-10-17T17:49:11.524Z,102126.69
2022-10-17T17:51:39.248Z,102128.75
2022-10-17T17:54:11.292Z,102128.37
2022-10-17T17:56:38.364Z,102131.09
2022-10-17T17:59:05.687Z,102131.66
2022-10-17T18:01:38.153Z,102129.94
2022-10-17T18:04:06.953Z,102129.13
2022-10-17T18:06:34.069Z,102130.00
2022-10-17T18:09:01.652Z,102123.00
2022-10-17T18:11:28.691Z,102108.41
2022-10-17T18:14:00.262Z,102124.22
2022-10-17T18:16:28.065Z,102128.00
2022-10-17T18:18:55.001Z,102114.69
2022-10-17T18:21:21.977Z,102121.16
2022-10-17T18:23:51.794Z,102107.44
2022-10-17T18:26:19.222Z,102112.44
2022-10-17T18:28:46.255Z,102117.19
2022-10-17T18:31:19.825Z,102110.97
2022-10-17T18:33:46.721Z,102103.25
2022-10-17T18:36:15.643Z,102093.38
2022-10-17T18:38:42.975Z,102126.44
2022-10-17T18:41:15.660Z,102140.69
2022-10-17T18:43:43.818Z,102139.25
2022-10-17T18:46:31.392Z,102117.56
2022-10-17T18:48:58.404Z,102120.66
2022-10-17T18:51:26.181Z,102102.94
2022-10-17T18:53:55.619Z,102115.13
2022-10-17T18:56:22.904Z,102117.84
2022-10-17T18:58:49.901Z,102117.84
2022-10-17T19:01:21.638Z,102114.63
2022-10-17T19:03:51.029Z,102119.94
2022-10-17T19:06:21.232Z,102111.09
2022-10-17T19:08:48.436Z,102121.06
2022-10-17T19:11:21.578Z,102120.31
2022-10-17T19:13:48.846Z,102117.00
2022-10-17T19:16:18.275Z,102111.69
2022-10-17T19:18:50.657Z,102122.50
2022-10-17T19:21:21.679Z,102117.44
2022-10-17T19:23:57.070Z,102119.41
2022-10-17T19:26:24.494Z,102113.25
2022-10-17T19:28:55.088Z,102122.44
2022-10-17T19:31:26.812Z,102119.91
2022-10-17T19:33:55.120Z,102120.78
2022-10-17T19:36:26.290Z,102120.84
2022-10-17T19:38:56.480Z,102122.78
2022-10-17T19:41:23.494Z,102122.94
2022-10-17T19:43:50.681Z,102116.00
2022-10-17T19:46:20.003Z,102117.06
2022-10-17T19:48:47.046Z,102126.22
2022-10-17T19:51:15.830Z,102100.84
2022-10-17T19:53:43.816Z,102113.09
2022-10-17T19:56:11.583Z,102121.09
2022-10-17T19:58:46.349Z,102123.94
2022-10-17T20:01:15.578Z,102121.25
2022-10-17T20:03:42.957Z,102125.13
2022-10-17T20:06:13.182Z,102126.34
2022-10-17T20:08:40.512Z,102125.34
2022-10-17T20:11:21.133Z,102120.03
2022-10-17T20:13:48.408Z,102128.03
2022-10-17T20:16:18.407Z,102123.66
2022-10-17T20:18:45.252Z,102125.59
2022-10-17T20:21:14.459Z,102128.25
2022-10-17T20:23:41.893Z,102130.12
2022-10-17T20:29:04.875Z,102132.19
2022-10-17T20:31:31.866Z,102128.75
2022-10-17T20:33:59.630Z,102136.91
2022-10-17T20:36:26.842Z,102131.81
2022-10-17T20:38:57.911Z,102135.41
2022-10-17T20:41:25.773Z,102134.72
2022-10-17T20:43:53.888Z,102125.19
2022-10-17T20:46:35.566Z,102129.69
2022-10-17T20:49:04.721Z,102135.16
2022-10-17T20:51:31.628Z,102136.97
2022-10-17T20:53:58.564Z,102134.56
2022-10-17T20:56:27.837Z,102130.09
2022-10-17T20:58:56.674Z,102133.00
2022-10-17T21:01:24.473Z,102138.56
2022-10-17T21:03:51.745Z,102132.34
2022-10-17T21:06:18.916Z,102131.81
2022-10-17T21:08:46.859Z,102141.06
2022-10-17T21:11:19.964Z,102142.72
2022-10-17T21:13:47.913Z,102146.31
2022-10-17T21:16:17.608Z,102138.28
2022-10-17T21:18:45.627Z,102143.69
2022-10-17T21:21:19.376Z,102132.97
2022-10-17T21:23:47.808Z,102136.50
2022-10-17T21:26:15.519Z,102132.03
2022-10-17T21:28:43.884Z,102128.47
2022-10-17T21:31:22.172Z,102131.16
2022-10-17T21:33:51.622Z,102133.88
2022-10-17T21:36:19.080Z,102136.56
2022-10-17T21:38:47.984Z,102132.97
2022-10-17T21:41:16.327Z,102124.22
2022-10-17T21:43:43.550Z,102132.34
2022-10-17T21:46:13.004Z,102133.41
2022-10-17T21:48:40.737Z,102122.59
2022-10-17T21:51:09.857Z,102125.28
2022-10-17T21:53:37.063Z,102121.75
2022-10-17T21:56:06.256Z,102118.22
2022-10-17T21:58:33.720Z,102121.87
2022-10-17T22:01:09.700Z,102124.75
2022-10-17T22:03:42.723Z,102123.06
2022-10-17T22:09:01.790Z,102123.22
2022-10-17T22:11:34.891Z,102110.78
2022-10-17T22:14:04.445Z,102112.63
2022-10-17T22:16:31.694Z,102112.72
2022-10-17T22:19:03.174Z,102108.53
2022-10-17T22:21:33.866Z,102113.91
2022-10-17T22:24:03.125Z,102109.50
2022-10-17T22:26:31.528Z,102111.37
2022-10-17T22:28:58.396Z,102113.38
2022-10-17T22:31:25.236Z,102109.81
2022-10-17T22:33:52.442Z,102111.78
2022-10-17T22:36:19.461Z,102111.87
2022-10-17T22:38:46.376Z,102120.91
2022-10-17T22:41:13.238Z,102111.97
2022-10-17T22:43:40.038Z,102107.50
2022-10-17T22:46:07.614Z,102105.03
2022-10-17T22:48:34.655Z,102103.31
2022-10-17T22:51:01.832Z,102109.59
2022-10-17T22:53:29.771Z,102105.31
2022-10-17T22:55:57.760Z,102108.00
2022-10-17T22:58:25.082Z,102111.59
2022-10-17T23:00:52.817Z,102094.97
2022-10-17T23:03:20.383Z,102102.06
2022-10-17T23:05:47.284Z,102112.84
2022-10-17T23:08:14.754Z,102109.34
2022-10-17T23:10:41.877Z,102116.47
2022-10-17T23:13:08.671Z,102105.78
2022-10-17T23:15:37.093Z,102106.75
2022-10-17T23:18:04.531Z,102099.78
2022-10-17T23:20:31.842Z,102106.12
2022-10-17T23:22:58.868Z,102102.62
2022-10-17T23:25:26.010Z,102105.75
2022-10-17T23:27:52.949Z,102095.81
2022-10-17T23:30:20.143Z,102093.09
2022-10-17T23:32:46.935Z,102085.34
2022-10-17T23:35:13.928Z,102095.91
2022-10-17T23:37:40.733Z,102093.25
2022-10-17T23:40:08.257Z,102086.97
2022-10-17T23:42:35.325Z,102086.09
2022-10-17T23:45:02.133Z,102083.50
2022-10-17T23:47:31.236Z,102085.25
2022-10-17T23:49:58.802Z,102079.91
2022-10-17T23:52:25.684Z,102079.19
2022-10-17T23:54:52.611Z,102071.25
2022-10-17T23:57:19.506Z,102082.91
2022-10-17T23:59:46.336Z,102073.06
